createdAt,value
2023-03-23T15:57:53.784Z,99866.66
2023-03-23T16:00:24.003Z,99866.38
2023-03-23T16:02:59.369Z,99872.13
2023-03-23T16:05:28.033Z,99863.25
2023-03-23T16:07:55.834Z,99862.25
2023-03-23T16:10:26.043Z,99869.03
2023-03-23T16:12:53.459Z,99875.13
2023-03-23T16:15:21.193Z,99872.19
2023-03-23T16:17:48.457Z,99870.72
2023-03-23T16:20:26.249Z,99872.09
2023-03-23T16:22:55.560Z,99883.03
2023-03-23T16:25:22.596Z,99900.81
2023-03-23T16:27:52.451Z,99909.94
2023-03-23T16:30:27.104Z,99918.66
2023-03-23T16:32:57.436Z,99935.13
2023-03-23T16:35:24.892Z,99897.00
2023-03-23T16:38:08.112Z,99919.44
2023-03-23T16:40:39.660Z,99900.78
2023-03-23T16:43:08.834Z,99904.22
2023-03-23T16:45:38.795Z,99914.16
2023-03-23T16:48:07.874Z,99898.97
2023-03-23T16:50:36.875Z,99904.63
2023-03-23T16:53:06.599Z,99897.84
2023-03-23T16:55:35.318Z,99891.31
2023-03-23T16:58:15.235Z,99913.16
2023-03-23T17:00:44.358Z,99909.19
2023-03-23T17:03:11.441Z,99911.34
2023-03-23T17:05:38.902Z,99917.28
2023-03-23T17:08:05.981Z,99906.19
2023-03-23T17:10:33.555Z,99915.97
2023-03-23T17:13:00.937Z,99911.56
2023-03-23T17:15:27.904Z,99919.25
2023-03-23T17:17:55.374Z,99919.47
2023-03-23T17:20:23.216Z,99912.69
2023-03-23T17:22:50.443Z,99910.81
2023-03-23T17:25:17.424Z,99912.91
2023-03-23T17:27:44.354Z,99901.03
2023-03-23T17:30:12.106Z,99900.88
2023-03-23T17:32:39.173Z,99890.22
2023-03-23T17:35:07.166Z,99912.38
2023-03-23T17:37:36.061Z,99903.38
2023-03-23T17:40:03.860Z,99943.66
2023-03-23T17:42:31.038Z,99947.94
2023-03-23T17:44:58.568Z,99921.31
2023-03-23T17:47:25.639Z,99954.31
2023-03-23T17:49:52.595Z,99958.41
2023-03-23T17:52:19.537Z,99938.56
2023-03-23T17:54:46.424Z,99954.75
2023-03-23T17:57:13.392Z,99965.41
2023-03-23T17:59:40.469Z,99975.34
2023-03-23T18:02:08.488Z,99961.41
2023-03-23T18:04:35.438Z,99952.16
2023-03-23T18:07:02.477Z,99969.47
2023-03-23T18:09:29.738Z,99945.94
2023-03-23T18:11:56.893Z,99967.22
2023-03-23T18:14:23.918Z,99946.38
2023-03-23T18:16:51.336Z,99952.75
2023-03-23T18:19:18.673Z,99945.94
2023-03-23T18:21:46.089Z,99937.56
2023-03-23T18:24:13.487Z,99945.66
2023-03-23T18:26:41.070Z,99945.50
2023-03-23T18:29:07.983Z,99933.84
2023-03-23T18:31:39.968Z,99928.72
2023-03-23T18:34:07.578Z,99939.91
2023-03-23T18:36:34.696Z,99939.47
2023-03-23T18:39:01.697Z,99940.34
2023-03-23T18:41:28.616Z,99927.56
2023-03-23T18:43:57.509Z,99930.81
2023-03-23T18:46:25.340Z,99917.66
2023-03-23T18:48:52.365Z,99925.00
2023-03-23T18:51:19.445Z,99905.88
2023-03-23T18:53:46.385Z,99919.31
2023-03-23T18:56:16.385Z,99900.88
2023-03-23T18:58:44.586Z,99919.44
2023-03-23T19:01:17.617Z,99897.63
2023-03-23T19:03:46.049Z,99913.88
2023-03-23T19:06:22.619Z,99914.88
2023-03-23T19:08:51.912Z,99906.38
2023-03-23T19:11:19.826Z,99913.19
2023-03-23T19:13:58.113Z,99914.91
2023-03-23T19:16:35.549Z,99906.81
2023-03-23T19:19:04.594Z,99909.91
2023-03-23T19:21:32.730Z,99908.06
2023-03-23T19:24:01.753Z,99919.72
2023-03-23T19:26:38.272Z,99916.00
2023-03-23T19:31:39.178Z,99873.16
2023-03-23T19:34:06.855Z,99866.78
2023-03-23T19:36:33.975Z,99855.72
2023-03-23T19:39:02.600Z,99871.34
2023-03-23T19:41:34.843Z,99856.00
2023-03-23T19:44:03.801Z,99835.41
2023-03-23T19:46:32.280Z,99862.88
2023-03-23T19:49:00.622Z,99855.50
2023-03-23T19:51:28.698Z,99846.38
2023-03-23T19:53:59.342Z,99851.88
2023-03-23T19:56:28.982Z,99861.09
2023-03-23T19:58:56.467Z,99861.53
2023-03-23T20:01:23.504Z,99870.13
2023-03-23T20:03:50.756Z,99866.16
2023-03-23T20:06:18.264Z,99882.69
2023-03-23T20:08:47.656Z,99879.00
2023-03-23T20:11:18.186Z,99876.63
2023-03-23T20:13:47.043Z,99862.13
2023-03-23T20:16:14.150Z,99858.00
2023-03-23T20:18:41.735Z,99841.44
2023-03-23T20:21:11.912Z,99837.47
2023-03-23T20:23:40.584Z,99847.81
2023-03-23T20:26:23.575Z,99844.50
2023-03-23T20:28:51.024Z,99816.16
2023-03-23T20:31:24.721Z,99846.75
2023-03-23T20:34:00.689Z,99851.72
2023-03-23T20:36:41.990Z,99802.84
2023-03-23T20:39:24.076Z,99815.16
2023-03-23T20:41:54.602Z,99835.50
2023-03-23T20:44:25.135Z,99823.63
2023-03-23T20:46:53.860Z,99827.41
2023-03-23T20:49:22.032Z,99824.72
2023-03-23T20:51:49.586Z,99816.31
2023-03-23T20:54:19.606Z,99817.44
2023-03-23T20:56:48.314Z,99806.56
2023-03-23T20:59:16.700Z,99810.59
2023-03-23T21:01:44.620Z,99780.53
2023-03-23T21:04:18.771Z,99811.47
2023-03-23T21:06:51.880Z,99802.03
2023-03-23T21:09:19.349Z,99797.38
2023-03-23T21:11:47.225Z,99797.16
2023-03-23T21:14:14.502Z,99801.56
2023-03-23T21:16:42.116Z,99807.44
2023-03-23T21:19:10.378Z,99798.44
2023-03-23T21:21:42.301Z,99801.25
2023-03-23T21:24:28.001Z,99804.69
2023-03-23T21:27:02.987Z,99800.31
2023-03-23T21:29:30.800Z,99795.81
2023-03-23T21:32:07.641Z,99775.00
2023-03-23T21:34:36.963Z,99782.00
2023-03-23T21:37:04.018Z,99763.59
2023-03-23T21:39:31.570Z,99759.13
2023-03-23T21:41:59.446Z,99749.03
2023-03-23T21:44:26.654Z,99738.56
2023-03-23T21:46:54.690Z,99753.84
2023-03-23T21:49:21.779Z,99761.19
2023-03-23T21:51:49.538Z,99750.09
2023-03-23T21:54:16.459Z,99759.19
2023-03-23T21:56:43.452Z,99740.28
2023-03-23T21:59:10.729Z,99752.19
2023-03-23T22:01:37.786Z,99721.25
2023-03-23T22:04:05.540Z,99742.78
2023-03-23T22:06:34.513Z,99728.81
2023-03-23T22:09:05.450Z,99714.00
2023-03-23T22:11:32.912Z,99731.06
2023-03-23T22:14:01.125Z,99731.50
2023-03-23T22:16:28.654Z,99699.34
2023-03-23T22:18:58.804Z,99730.91
2023-03-23T22:21:27.332Z,99722.13
2023-03-23T22:24:00.430Z,99720.50
2023-03-23T22:26:28.695Z,99711.41
2023-03-23T22:28:56.946Z,99708.25
2023-03-23T22:31:28.619Z,99703.84
2023-03-23T22:33:57.082Z,99697.13
2023-03-23T22:36:26.659Z,99687.66
2023-03-23T22:38:55.549Z,99689.38
2023-03-23T22:41:34.177Z,99682.97
2023-03-23T22:44:01.689Z,99658.03
2023-03-23T22:46:29.689Z,99673.78
2023-03-23T22:48:56.784Z,99647.25
2023-03-23T22:51:24.043Z,99646.06
2023-03-23T22:53:51.324Z,99650.13
2023-03-23T22:56:18.873Z,99644.59
2023-03-23T22:58:46.130Z,99650.78
2023-03-23T23:01:18.197Z,99649.47
2023-03-23T23:03:45.477Z,99628.50
2023-03-23T23:06:14.645Z,99632.19
2023-03-23T23:08:41.815Z,99633.09
2023-03-23T23:11:12.075Z,99619.53
2023-03-23T23:13:41.029Z,99603.81
2023-03-23T23:16:10.084Z,99630.56
2023-03-23T23:18:38.536Z,99619.94
2023-03-23T23:21:11.660Z,99623.09
2023-03-23T23:23:38.799Z,99611.91
2023-03-23T23:26:06.295Z,99623.47
2023-03-23T23:28:33.307Z,99620.22
2023-03-23T23:31:00.252Z,99614.06
2023-03-23T23:33:27.705Z,99615.75
2023-03-23T23:35:56.330Z,99616.59
2023-03-23T23:38:23.429Z,99614.06
2023-03-23T23:40:50.575Z,99592.88
2023-03-23T23:43:17.600Z,99620.94
2023-03-23T23:45:44.592Z,99587.69
2023-03-23T23:48:12.482Z,99623.56
2023-03-23T23:50:39.386Z,99607.75
2023-03-23T23:53:06.413Z,99607.22
2023-03-23T23:55:33.484Z,99616.31
2023-03-23T23:58:00.586Z,99605.13
